createdAt,value
2023-05-09T00:01:15.722Z,9.00
2023-05-09T00:03:43.167Z,9.10
2023-05-09T00:06:11.764Z,9.00
2023-05-09T00:08:38.691Z,8.90
2023-05-09T00:11:05.607Z,9.00
2023-05-09T00:13:32.950Z,9.00
2023-05-09T00:15:59.868Z,9.00
2023-05-09T00:18:28.374Z,9.10
2023-05-09T00:20:55.486Z,9.10
2023-05-09T00:23:22.352Z,9.00
2023-05-09T00:25:49.317Z,9.00
2023-05-09T00:28:16.299Z,9.10
2023-05-09T00:30:43.214Z,9.00
2023-05-09T00:33:11.442Z,9.00
2023-05-09T00:35:38.366Z,9.00
2023-05-09T00:38:05.340Z,9.00
2023-05-09T00:40:32.293Z,9.00
2023-05-09T00:42:59.902Z,9.00
2023-05-09T00:45:26.899Z,8.90
2023-05-09T00:47:54.232Z,8.90
2023-05-09T00:50:21.444Z,8.90
2023-05-09T00:52:48.361Z,8.90
2023-05-09T00:55:16.358Z,8.80
2023-05-09T00:57:43.614Z,8.80
2023-05-09T01:00:14.614Z,8.80
2023-05-09T01:02:43.698Z,8.70
2023-05-09T01:05:11.847Z,8.60
2023-05-09T01:07:46.834Z,8.70
2023-05-09T01:10:27.701Z,8.60
2023-05-09T01:13:05.217Z,8.60
2023-05-09T01:15:54.189Z,8.60
2023-05-09T01:18:33.720Z,8.60
2023-05-09T01:21:08.982Z,8.50
2023-05-09T01:23:44.825Z,8.40
2023-05-09T01:26:29.571Z,8.40
2023-05-09T01:29:32.065Z,8.20
2023-05-09T01:32:02.157Z,8.20
2023-05-09T01:34:30.634Z,8.10
2023-05-09T01:37:00.781Z,8.20
2023-05-09T01:39:29.102Z,8.10
2023-05-09T01:41:58.389Z,8.10
2023-05-09T01:44:26.804Z,8.10
2023-05-09T01:46:56.392Z,8.10
2023-05-09T01:49:24.010Z,8.20
2023-05-09T01:51:52.423Z,8.20
2023-05-09T01:54:20.897Z,8.20
2023-05-09T01:56:48.569Z,8.20
2023-05-09T01:59:17.365Z,8.20
2023-05-09T02:01:45.804Z,8.20
2023-05-09T02:04:15.920Z,8.10
2023-05-09T02:06:44.800Z,8.10
2023-05-09T02:09:12.918Z,8.00
2023-05-09T02:11:39.795Z,8.00
2023-05-09T02:14:07.438Z,8.00
2023-05-09T02:16:34.577Z,7.90
2023-05-09T02:19:01.593Z,7.90
2023-05-09T02:21:29.177Z,7.90
2023-05-09T02:23:56.476Z,7.90
2023-05-09T02:26:24.192Z,7.80
2023-05-09T02:28:51.772Z,7.80
2023-05-09T02:31:21.016Z,7.80
2023-05-09T02:33:48.631Z,7.80
2023-05-09T02:36:16.701Z,7.70
2023-05-09T02:38:44.301Z,7.70
2023-05-09T02:41:15.252Z,7.50
2023-05-09T02:43:42.271Z,7.50
2023-05-09T02:46:10.299Z,7.40
2023-05-09T02:48:37.701Z,7.30
2023-05-09T02:51:04.582Z,7.30
2023-05-09T02:53:31.478Z,7.20
2023-05-09T02:55:58.702Z,7.20
2023-05-09T02:58:25.613Z,7.10
2023-05-09T03:00:52.496Z,7.10
2023-05-09T03:03:19.576Z,7.10
2023-05-09T03:05:46.534Z,7.10
2023-05-09T03:08:13.400Z,7.10
2023-05-09T03:10:40.276Z,7.00
2023-05-09T03:13:07.888Z,7.00
2023-05-09T03:15:34.760Z,7.00
2023-05-09T03:18:01.725Z,7.00
2023-05-09T03:20:28.612Z,7.00
2023-05-09T03:22:55.583Z,7.00
2023-05-09T03:25:22.629Z,7.00
2023-05-09T03:27:49.569Z,7.00
2023-05-09T03:30:16.532Z,7.00
2023-05-09T03:32:43.494Z,7.00
2023-05-09T03:35:10.459Z,7.00
2023-05-09T03:37:37.342Z,7.00
2023-05-09T03:40:04.642Z,7.10
2023-05-09T03:42:31.479Z,7.10
2023-05-09T03:44:58.469Z,7.10
2023-05-09T03:47:25.323Z,7.10
2023-05-09T03:49:53.665Z,7.20
2023-05-09T03:52:20.593Z,7.40
2023-05-09T03:54:47.443Z,7.50
2023-05-09T03:57:14.348Z,7.70
2023-05-09T03:59:41.208Z,8.00
2023-05-09T04:02:08.330Z,8.40
2023-05-09T04:04:35.198Z,8.80
2023-05-09T04:07:02.104Z,9.20
2023-05-09T04:09:29.103Z,9.60
2023-05-09T04:11:56.090Z,10.00
2023-05-09T04:14:22.960Z,10.40
2023-05-09T04:16:49.904Z,10.70
2023-05-09T04:19:16.786Z,11.10
2023-05-09T04:21:43.721Z,11.40
2023-05-09T04:24:10.834Z,11.60
2023-05-09T04:26:39.082Z,11.90
2023-05-09T04:29:06.072Z,12.10
2023-05-09T04:31:33.060Z,12.30
2023-05-09T04:34:00.095Z,12.50
2023-05-09T04:36:27.835Z,12.60
2023-05-09T04:38:54.895Z,12.60
2023-05-09T04:41:21.785Z,12.70
2023-05-09T04:43:48.668Z,12.90
2023-05-09T04:46:15.763Z,13.20
2023-05-09T04:48:42.691Z,13.50
2023-05-09T04:51:09.895Z,13.80
2023-05-09T04:53:36.850Z,14.10
2023-05-09T04:56:03.785Z,14.50
2023-05-09T04:58:31.121Z,14.90
2023-05-09T05:00:58.019Z,15.20
2023-05-09T05:03:24.895Z,15.60
2023-05-09T05:05:51.790Z,15.90
2023-05-09T05:08:18.733Z,16.20
2023-05-09T05:10:45.661Z,16.50
2023-05-09T05:13:12.527Z,16.80
2023-05-09T05:15:39.417Z,17.10
2023-05-09T05:18:06.333Z,17.30
2023-05-09T05:20:33.751Z,17.40
2023-05-09T05:23:00.840Z,17.30
2023-05-09T05:25:27.975Z,17.30
2023-05-09T05:27:54.881Z,17.60
2023-05-09T05:30:21.811Z,17.80
2023-05-09T05:32:48.807Z,17.70
2023-05-09T05:35:15.938Z,18.00
2023-05-09T05:37:44.341Z,18.10
2023-05-09T05:40:11.451Z,18.10
2023-05-09T05:42:38.360Z,17.80
2023-05-09T05:45:05.714Z,18.00
2023-05-09T05:47:33.894Z,17.50
2023-05-09T05:50:02.552Z,17.40
2023-05-09T05:52:29.557Z,17.30
2023-05-09T05:54:56.840Z,17.40
2023-05-09T05:57:23.766Z,17.40
2023-05-09T05:59:51.517Z,17.50
2023-05-09T06:02:18.838Z,17.20
2023-05-09T06:04:45.703Z,17.80
2023-05-09T06:07:13.989Z,18.00
2023-05-09T06:09:40.970Z,17.90
2023-05-09T06:12:07.908Z,17.90
2023-05-09T06:14:34.744Z,17.90
2023-05-09T06:17:01.755Z,17.80
2023-05-09T06:19:28.732Z,17.90
2023-05-09T06:21:55.667Z,17.60
2023-05-09T06:24:34.440Z,18.00
2023-05-09T06:27:02.474Z,17.70
2023-05-09T06:29:29.584Z,18.10
2023-05-09T06:31:56.568Z,17.80
2023-05-09T06:34:23.513Z,17.40
2023-05-09T06:36:50.533Z,17.30
2023-05-09T06:39:17.401Z,17.60
2023-05-09T06:41:44.331Z,17.70
2023-05-09T06:44:11.246Z,17.70
2023-05-09T06:46:38.147Z,17.50
2023-05-09T06:49:06.177Z,17.50
2023-05-09T06:51:33.434Z,17.90
2023-05-09T06:54:00.309Z,18.30
2023-05-09T06:56:27.510Z,18.50
2023-05-09T06:58:54.599Z,17.80
2023-05-09T07:01:21.650Z,18.10
2023-05-09T07:03:48.583Z,17.80
2023-05-09T07:06:15.896Z,17.80
2023-05-09T07:08:42.743Z,17.70
2023-05-09T07:11:09.675Z,17.80
2023-05-09T07:13:36.693Z,18.50
2023-05-09T07:16:04.086Z,18.60
2023-05-09T07:18:31.070Z,18.30
2023-05-09T07:20:58.162Z,18.30
2023-05-09T07:23:26.169Z,18.40
2023-05-09T07:25:59.496Z,18.20
2023-05-09T07:28:26.560Z,18.80
2023-05-09T07:30:55.779Z,18.70
2023-05-09T07:33:23.052Z,19.00
2023-05-09T07:35:49.991Z,18.50
2023-05-09T07:38:16.851Z,18.70
2023-05-09T07:40:43.707Z,18.90
2023-05-09T07:43:10.748Z,19.00
2023-05-09T07:45:37.710Z,19.00
2023-05-09T07:48:04.931Z,19.30
2023-05-09T07:50:31.894Z,19.50
2023-05-09T07:52:59.645Z,19.30
2023-05-09T07:55:26.614Z,19.10
2023-05-09T07:57:53.479Z,19.40
2023-05-09T08:00:23.855Z,19.10
2023-05-09T08:02:51.975Z,19.10
2023-05-09T08:05:19.281Z,19.00
2023-05-09T08:07:46.722Z,18.90
2023-05-09T08:10:13.600Z,18.60
2023-05-09T08:12:40.621Z,18.80
2023-05-09T08:15:08.013Z,19.20
2023-05-09T08:17:34.935Z,19.40
2023-05-09T08:20:01.820Z,19.20
2023-05-09T08:22:28.650Z,19.40
2023-05-09T08:24:55.575Z,19.50
2023-05-09T08:27:22.442Z,19.70
2023-05-09T08:29:49.383Z,20.10
2023-05-09T08:32:16.440Z,20.40
2023-05-09T08:34:43.311Z,20.40
2023-05-09T08:37:10.710Z,20.60
2023-05-09T08:39:38.697Z,20.30
2023-05-09T08:42:05.907Z,20.10
2023-05-09T08:44:32.815Z,19.90
2023-05-09T08:47:01.589Z,20.20
2023-05-09T08:49:29.168Z,20.00
2023-05-09T08:51:57.092Z,19.60
2023-05-09T08:54:25.286Z,19.70
2023-05-09T08:56:52.279Z,20.10
2023-05-09T08:59:19.772Z,20.40
2023-05-09T09:01:47.596Z,20.90
2023-05-09T09:04:14.743Z,21.00
2023-05-09T09:06:42.740Z,20.70
2023-05-09T09:09:09.849Z,20.90
2023-05-09T09:11:38.862Z,20.80
2023-05-09T09:14:15.689Z,20.60
2023-05-09T09:16:45.117Z,20.30
2023-05-09T09:19:13.648Z,20.70
2023-05-09T09:21:49.861Z,21.40
2023-05-09T09:24:21.483Z,21.20
2023-05-09T09:26:49.318Z,21.00
2023-05-09T09:29:18.629Z,21.20
2023-05-09T09:31:46.988Z,21.20
2023-05-09T09:34:20.502Z,20.80
2023-05-09T09:36:48.597Z,20.50
2023-05-09T09:39:16.028Z,20.80
2023-05-09T09:41:44.737Z,20.50
2023-05-09T09:44:12.924Z,20.20
2023-05-09T09:46:43.891Z,20.20
2023-05-09T09:49:12.815Z,20.30
2023-05-09T09:51:40.599Z,20.50
2023-05-09T09:54:11.314Z,20.20
2023-05-09T09:56:42.347Z,19.90
2023-05-09T09:59:14.204Z,19.90
2023-05-09T10:02:02.932Z,20.20
2023-05-09T10:04:37.230Z,20.30
2023-05-09T10:07:06.502Z,20.20
2023-05-09T10:09:35.907Z,20.00
2023-05-09T10:12:04.979Z,19.50
2023-05-09T10:14:35.267Z,19.50
2023-05-09T10:17:05.298Z,19.50
2023-05-09T10:19:33.312Z,19.30
2023-05-09T10:22:06.188Z,18.90
2023-05-09T10:24:40.624Z,18.80
2023-05-09T10:27:11.660Z,18.50
2023-05-09T10:29:51.803Z,18.50
2023-05-09T10:32:24.015Z,18.50
2023-05-09T10:34:58.299Z,18.60
2023-05-09T10:37:25.720Z,18.70
2023-05-09T10:39:54.656Z,18.50
2023-05-09T10:42:25.319Z,18.30
2023-05-09T10:44:53.880Z,18.30
2023-05-09T10:47:26.929Z,18.30
2023-05-09T10:49:55.239Z,18.30
2023-05-09T10:52:22.893Z,18.50
2023-05-09T10:55:04.361Z,18.60
2023-05-09T10:57:32.302Z,18.60
2023-05-09T11:00:00.599Z,18.70
2023-05-09T11:02:32.562Z,18.70
2023-05-09T11:05:19.338Z,18.80
2023-05-09T11:07:46.332Z,19.00
2023-05-09T11:10:17.967Z,19.10
2023-05-09T11:12:59.246Z,19.30
2023-05-09T11:15:29.796Z,19.10
2023-05-09T11:18:10.978Z,18.70
2023-05-09T11:20:45.235Z,18.30
2023-05-09T11:23:12.254Z,18.00
2023-05-09T11:25:42.534Z,18.00
2023-05-09T11:28:10.798Z,17.90
2023-05-09T11:30:42.673Z,18.10
2023-05-09T11:33:24.028Z,18.50
2023-05-09T11:36:15.860Z,18.80
2023-05-09T11:38:43.166Z,18.80
2023-05-09T11:41:10.350Z,19.00
2023-05-09T11:43:38.799Z,18.70
2023-05-09T11:46:06.431Z,18.50
2023-05-09T11:48:42.003Z,18.30
2023-05-09T11:51:18.442Z,18.30
2023-05-09T11:53:51.478Z,18.50
2023-05-09T11:56:18.735Z,18.80
2023-05-09T11:58:46.876Z,18.90
2023-05-09T12:01:13.990Z,19.00
2023-05-09T12:03:47.572Z,19.10
2023-05-09T12:06:17.066Z,18.90
2023-05-09T12:08:45.457Z,19.00
2023-05-09T12:11:13.925Z,19.20
2023-05-09T12:13:52.382Z,19.20
2023-05-09T12:16:20.623Z,19.00
2023-05-09T12:18:52.704Z,19.00
2023-05-09T12:21:20.784Z,19.00
2023-05-09T12:23:50.956Z,18.90
2023-05-09T12:26:19.267Z,18.80
2023-05-09T12:28:47.650Z,18.80
2023-05-09T12:31:14.868Z,18.70
2023-05-09T12:33:42.096Z,18.50
2023-05-09T12:36:13.770Z,18.50
2023-05-09T12:38:40.892Z,18.70
2023-05-09T12:41:18.675Z,19.00
2023-05-09T12:43:56.804Z,19.20
2023-05-09T12:46:24.315Z,19.30
2023-05-09T12:48:51.812Z,19.50
2023-05-09T12:51:20.713Z,19.40
2023-05-09T12:53:48.324Z,19.40
2023-05-09T12:56:20.766Z,19.50
2023-05-09T12:58:54.758Z,19.40
2023-05-09T13:01:29.467Z,19.30
2023-05-09T13:04:05.822Z,19.40
2023-05-09T13:06:33.158Z,19.20
2023-05-09T13:09:02.575Z,19.20
2023-05-09T13:11:30.050Z,19.20
2023-05-09T13:13:57.373Z,19.00
2023-05-09T13:16:24.511Z,18.90
2023-05-09T13:18:51.474Z,18.90
2023-05-09T13:21:18.432Z,18.70
2023-05-09T13:23:45.751Z,18.70
2023-05-09T13:26:12.876Z,18.60
2023-05-09T13:28:39.827Z,18.60
2023-05-09T13:31:08.109Z,18.60
2023-05-09T13:33:35.199Z,18.70
2023-05-09T13:36:02.213Z,18.60
2023-05-09T13:38:31.087Z,18.70
2023-05-09T13:40:58.562Z,18.90
2023-05-09T13:43:25.504Z,19.00
2023-05-09T13:45:52.425Z,19.10
2023-05-09T13:48:19.356Z,19.00
2023-05-09T13:50:46.826Z,19.20
2023-05-09T13:53:13.762Z,19.30
2023-05-09T13:55:40.634Z,19.40
2023-05-09T13:58:07.724Z,19.60
2023-05-09T14:00:34.728Z,19.60
2023-05-09T14:03:04.876Z,19.50
2023-05-09T14:05:32.175Z,19.40
2023-05-09T14:07:59.080Z,19.30
2023-05-09T14:10:27.227Z,19.10
2023-05-09T14:12:54.339Z,18.90
2023-05-09T14:15:21.355Z,18.90
2023-05-09T14:17:48.278Z,18.90
2023-05-09T14:20:18.348Z,18.90
2023-05-09T14:22:45.301Z,18.90
2023-05-09T14:25:12.635Z,18.90
2023-05-09T14:27:39.601Z,18.90
2023-05-09T14:30:07.164Z,19.00
2023-05-09T14:32:34.121Z,19.00
2023-05-09T14:35:01.219Z,18.90
2023-05-09T14:37:29.506Z,18.80
2023-05-09T14:39:56.466Z,18.70
2023-05-09T14:42:23.355Z,18.60
2023-05-09T14:44:50.284Z,18.70
2023-05-09T14:47:17.155Z,18.90
2023-05-09T14:49:44.397Z,19.00
2023-05-09T14:52:11.337Z,19.20
2023-05-09T14:54:38.228Z,19.20
2023-05-09T14:57:07.053Z,19.20
2023-05-09T14:59:36.666Z,19.00
2023-05-09T15:02:04.043Z,18.90
2023-05-09T15:04:31.376Z,18.70
2023-05-09T15:06:59.221Z,18.50
2023-05-09T15:09:26.937Z,18.40
2023-05-09T15:11:54.911Z,18.30
2023-05-09T15:14:21.844Z,18.30
2023-05-09T15:16:48.936Z,18.30
2023-05-09T15:19:15.921Z,18.30
2023-05-09T15:21:42.793Z,18.30
2023-05-09T15:24:09.743Z,18.20
2023-05-09T15:26:36.618Z,18.20
2023-05-09T15:29:03.593Z,18.30
2023-05-09T15:31:33.560Z,18.30
2023-05-09T15:34:01.498Z,18.30
2023-05-09T15:36:33.934Z,18.40
2023-05-09T15:39:01.189Z,18.50
2023-05-09T15:41:28.733Z,18.50
2023-05-09T15:43:55.693Z,18.40
2023-05-09T15:46:22.767Z,18.60
2023-05-09T15:48:50.389Z,18.70
2023-05-09T15:51:17.313Z,18.90
2023-05-09T15:53:44.151Z,18.80
2023-05-09T15:56:11.281Z,18.60
2023-05-09T15:58:39.095Z,18.50
2023-05-09T16:01:08.108Z,18.40
2023-05-09T16:03:35.504Z,18.20
2023-05-09T16:06:03.332Z,18.10
2023-05-09T16:08:30.247Z,18.00
2023-05-09T16:11:00.858Z,18.00
2023-05-09T16:13:28.190Z,18.00
2023-05-09T16:15:55.235Z,18.00
2023-05-09T16:18:22.198Z,18.00
2023-05-09T16:20:49.164Z,18.00
2023-05-09T16:23:16.030Z,18.00
2023-05-09T16:25:42.910Z,18.10
2023-05-09T16:28:09.849Z,18.10
2023-05-09T16:30:37.227Z,18.00
2023-05-09T16:33:04.211Z,18.00
2023-05-09T16:35:31.170Z,18.00
2023-05-09T16:37:58.173Z,18.00
2023-05-09T16:40:25.073Z,18.00
2023-05-09T16:42:53.712Z,18.00
2023-05-09T16:45:20.681Z,18.00
2023-05-09T16:47:47.553Z,18.00
2023-05-09T16:50:14.842Z,18.00
2023-05-09T16:52:41.918Z,17.90
2023-05-09T16:55:14.568Z,17.80
2023-05-09T16:57:41.528Z,17.70
2023-05-09T17:00:09.879Z,17.70
2023-05-09T17:02:37.302Z,17.60
2023-05-09T17:05:04.860Z,17.50
2023-05-09T17:07:32.358Z,17.50
2023-05-09T17:09:59.396Z,17.40
2023-05-09T17:12:27.684Z,17.40
2023-05-09T17:14:54.779Z,17.40
2023-05-09T17:17:21.680Z,17.30
2023-05-09T17:19:48.734Z,17.30
2023-05-09T17:22:15.753Z,17.20
2023-05-09T17:24:42.594Z,17.10
2023-05-09T17:27:10.933Z,17.10
2023-05-09T17:29:37.800Z,17.10
2023-05-09T17:32:05.041Z,17.00
2023-05-09T17:34:32.373Z,16.90
2023-05-09T17:37:01.487Z,16.90
2023-05-09T17:39:28.610Z,16.90
2023-05-09T17:41:55.504Z,16.80
2023-05-09T17:44:22.422Z,16.80
2023-05-09T17:46:49.648Z,16.70
2023-05-09T17:49:17.163Z,16.70
2023-05-09T17:51:44.280Z,16.70
2023-05-09T17:54:11.931Z,16.60
2023-05-09T17:56:38.928Z,16.60
2023-05-09T17:59:06.565Z,16.50
2023-05-09T18:01:33.617Z,16.50
2023-05-09T18:04:00.782Z,16.40
2023-05-09T18:06:27.695Z,16.30
2023-05-09T18:08:54.760Z,16.30
2023-05-09T18:11:22.788Z,16.30
2023-05-09T18:13:49.690Z,16.20
2023-05-09T18:16:16.583Z,16.20
2023-05-09T18:18:44.860Z,16.10
2023-05-09T18:21:12.160Z,16.00
2023-05-09T18:23:39.228Z,15.90
2023-05-09T18:26:06.235Z,15.90
2023-05-09T18:28:39.279Z,15.80
2023-05-09T18:31:09.561Z,15.70
2023-05-09T18:33:39.497Z,15.70
2023-05-09T18:36:09.846Z,15.60
2023-05-09T18:38:39.961Z,15.50
2023-05-09T18:41:08.571Z,15.40
2023-05-09T18:43:36.036Z,15.40
2023-05-09T18:46:03.699Z,15.30
2023-05-09T18:48:31.234Z,15.20
2023-05-09T18:50:58.159Z,15.20
2023-05-09T18:53:28.984Z,15.10
2023-05-09T18:55:57.318Z,15.10
2023-05-09T18:58:24.941Z,15.10
2023-05-09T19:00:53.364Z,15.00
2023-05-09T19:03:20.972Z,15.00
2023-05-09T19:05:47.940Z,14.90
2023-05-09T19:08:15.796Z,14.80
2023-05-09T19:10:43.595Z,14.80
2023-05-09T19:13:11.952Z,14.80
2023-05-09T19:15:40.888Z,14.70
2023-05-09T19:18:08.851Z,14.70
2023-05-09T19:20:45.430Z,14.60
2023-05-09T19:23:12.933Z,14.60
2023-05-09T19:25:40.101Z,14.50
2023-05-09T19:28:07.220Z,14.50
2023-05-09T19:30:39.555Z,14.50
2023-05-09T19:33:06.658Z,14.40
2023-05-09T19:35:34.488Z,14.40
2023-05-09T19:38:01.878Z,14.30
2023-05-09T19:40:29.508Z,14.20
2023-05-09T19:42:57.564Z,14.20
2023-05-09T19:45:25.553Z,14.10
2023-05-09T19:47:55.246Z,14.10
2023-05-09T19:50:24.184Z,14.00
2023-05-09T19:52:53.422Z,13.90
2023-05-09T19:55:20.400Z,13.90
2023-05-09T19:57:47.433Z,13.90
2023-05-09T20:00:14.827Z,13.80
2023-05-09T20:02:41.925Z,13.70
2023-05-09T20:05:09.348Z,13.60
2023-05-09T20:07:37.387Z,13.60
2023-05-09T20:10:05.215Z,13.60
2023-05-09T20:12:32.839Z,13.60
2023-05-09T20:15:01.537Z,13.50
2023-05-09T20:17:29.363Z,13.50
2023-05-09T20:19:58.117Z,13.50
2023-05-09T20:22:25.900Z,13.50
2023-05-09T20:24:53.802Z,13.40
2023-05-09T20:27:22.638Z,13.40
2023-05-09T20:29:50.191Z,13.40
2023-05-09T20:32:17.763Z,13.40
2023-05-09T20:34:45.494Z,13.30
2023-05-09T20:37:13.667Z,13.30
2023-05-09T20:39:41.269Z,13.30
2023-05-09T20:42:08.933Z,13.20
2023-05-09T20:44:38.082Z,13.20
2023-05-09T20:47:06.184Z,13.10
2023-05-09T20:49:33.622Z,13.10
2023-05-09T20:52:00.761Z,13.00
2023-05-09T20:54:29.175Z,13.00
2023-05-09T20:56:56.039Z,13.00
2023-05-09T20:59:22.866Z,13.00
2023-05-09T21:01:49.706Z,13.00
2023-05-09T21:04:16.526Z,12.90
2023-05-09T21:06:43.469Z,12.90
2023-05-09T21:09:10.397Z,12.90
2023-05-09T21:11:38.366Z,12.90
2023-05-09T21:14:05.593Z,12.90
2023-05-09T21:16:32.489Z,12.80
2023-05-09T21:19:02.528Z,12.80
2023-05-09T21:21:29.557Z,12.80
2023-05-09T21:23:56.460Z,12.80
2023-05-09T21:26:23.315Z,12.80
2023-05-09T21:28:50.134Z,12.80
2023-05-09T21:31:17.110Z,12.80
2023-05-09T21:33:43.954Z,12.90
2023-05-09T21:36:11.197Z,12.90
2023-05-09T21:38:38.179Z,12.90
2023-05-09T21:41:05.616Z,13.00
2023-05-09T21:43:32.432Z,13.00
2023-05-09T21:45:59.349Z,13.00
2023-05-09T21:48:26.237Z,13.00
2023-05-09T21:50:53.057Z,13.00
2023-05-09T21:53:19.892Z,12.90
2023-05-09T21:55:47.409Z,12.90
2023-05-09T21:58:14.212Z,12.90
2023-05-09T22:00:41.040Z,12.90
2023-05-09T22:03:08.103Z,12.90
2023-05-09T22:05:34.978Z,12.90
2023-05-09T22:08:01.775Z,12.90
2023-05-09T22:10:28.864Z,12.90
2023-05-09T22:12:55.741Z,12.90
2023-05-09T22:15:22.701Z,12.90
2023-05-09T22:17:49.581Z,12.90
2023-05-09T22:20:16.664Z,12.80
2023-05-09T22:22:43.682Z,12.90
2023-05-09T22:25:10.658Z,12.90
2023-05-09T22:27:37.492Z,13.00
2023-05-09T22:30:04.810Z,13.00
2023-05-09T22:32:32.312Z,13.00
2023-05-09T22:34:59.218Z,13.00
2023-05-09T22:37:26.266Z,13.00
2023-05-09T22:39:53.106Z,13.10
2023-05-09T22:42:19.941Z,13.10
2023-05-09T22:44:47.548Z,13.20
2023-05-09T22:47:14.447Z,13.20
2023-05-09T22:49:41.793Z,13.20
2023-05-09T22:52:10.103Z,13.30
2023-05-09T22:54:36.986Z,13.30
2023-05-09T22:57:03.953Z,13.30
2023-05-09T22:59:30.827Z,13.30
2023-05-09T23:01:58.594Z,13.40
2023-05-09T23:04:26.004Z,13.30
2023-05-09T23:06:52.918Z,13.30
2023-05-09T23:09:19.876Z,13.30
2023-05-09T23:11:46.813Z,13.40
2023-05-09T23:14:13.942Z,13.40
2023-05-09T23:16:40.950Z,13.40
2023-05-09T23:19:07.809Z,13.30
2023-05-09T23:21:34.657Z,13.30
2023-05-09T23:24:01.777Z,13.20
2023-05-09T23:26:28.633Z,13.30
2023-05-09T23:28:55.825Z,13.20
2023-05-09T23:31:22.776Z,13.20
2023-05-09T23:33:49.850Z,13.10
2023-05-09T23:36:16.838Z,13.10
2023-05-09T23:38:43.754Z,13.10
2023-05-09T23:41:10.652Z,13.00
2023-05-09T23:43:37.985Z,13.00
2023-05-09T23:46:04.899Z,12.90
2023-05-09T23:48:31.791Z,13.00
2023-05-09T23:50:58.707Z,13.00
2023-05-09T23:53:26.242Z,12.90
2023-05-09T23:55:53.107Z,12.90
2023-05-09T23:58:20.009Z,12.90
